Eagle River, WI

10:54 PM CST on February 08, 2016 (GMT -0600)
APRSWXNET | | Change Station
CLOSE
Current Station
Personal Weather Station
Location: Eagle River, WI
Elevation: 1642 ft
Nearby Weather Stations
Active Advisory: Winter Weather Advisory

Elev 1642 ft 45.92 °N, 89.24 °W | Updated 54 minutes ago

Light Snow
Light Snow
10.0 °F
Feels Like 10.0 °F
N
0.0
Wind Variable Wind from WSW
Gusts 3.0 mph

Today
High -- | Low -- °F
--% Chance of Precip.
Yesterday
High -- | Low -- °F
Precip. -- in
Pressure 29.72 in
Visibility 7.0 miles
Clouds Clear
Dew Point Not available.
Humidity Not available.
Rainfall in
Snow Depth Not available.
7:10 AM 5:12 PM
New Moon, 0% visible
METAR KEGV 090430Z AUTO 33008KT 7SM -SN CLR M12/M15 A2972 RMK AO2 T11161147
Pressure 29.72 in
Visibility 7.0 miles
Clouds Clear
Dew Point Not available.
Humidity Not available.
Rainfall in
Snow Depth Not available.
7:10 AM 5:12 PM
New Moon, 0% visible
METAR KEGV 090430Z AUTO 33008KT 7SM -SN CLR M12/M15 A2972 RMK AO2 T11161147

10-Day Weather Forecast

Almanac

Astronomy

Feb. 08, 2016 Rise Set
Actual Time
Civil Twilight
Nautical Twilight
Astronomical Twilight
Moon
Length of Visible Light
Length of Day
Tomorrow will be .
, % of the Moon is Illuminated

Today's Extremes

State Highs State Lows

Community

WunderPhotos

Upload Photos

1,891,549 photos uploaded!

WunderBlog® & News

Nearby

Air Quality

  Air Quality AQ Index Pollutant
Not available.

Snow Depth

Station Depth Elevation

Earthquake Activity

City Distance Mag. Time & Date
Minimum magnitude displayed is 2.5.

Coastal Water Temperatures

Place Temperature

Stations

Nearby Weather Stations

Station Location Temp. Windchill Dew Point Humidity Wind Precip. Elev Updated Type
                   

Watches & Warnings

Winter Weather Advisory
Issued: 9:18 PM CST Feb. 8, 2016 – National Weather Service

... Winter Weather Advisory now in effect until 3 PM CST Tuesday...

* snow showers will continue into Tuesday. The snow showers will
become more intense at times as the stronger lake effect bands
pass.

* An additional accumulation of 2 to 3 inches can be expected
tonight and Tuesday... with higher totals of up to 4 to 5 inches
possible in northwest Vilas County.

* Expect reduced visibilities at times along with slippery roads.

Precautionary/preparedness actions...

A Winter Weather Advisory for snow means periods of snow will
cause primarily travel difficulties. Be prepared for snow covered
roads and limited visibilities... and use extra caution while
driving. The latest Wisconsin Road conditions can be obtained by
calling 511.


Kurimski